sensor_id;sensor_type;location;lat;lon;timestamp;P1;durP1;ratioP1;P2;durP2;ratioP2
74483;SDS011;62942;52.462;10.846;2022-10-16T00:00:40;1.1;;;2.8;;
74483;SDS011;62942;52.462;10.846;2022-10-16T00:01:39;1.1;;;2.6;;
74483;SDS011;62942;52.462;10.846;2022-10-16T00:02:49;1.3;;;5.6;;
74483;SDS011;62942;52.462;10.846;2022-10-16T00:04:00;1.1;;;2.7;;
74483;SDS011;62942;52.462;10.846;2022-10-16T00:04:59;1.1;;;4;;
74483;SDS011;62942;52.462;10.846;2022-10-16T00:06:09;1.1;;;2.9;;
74483;SDS011;62942;52.462;10.846;2022-10-16T00:07:19;1.1;;;3.3;;
74483;SDS011;62942;52.462;10.846;2022-10-16T00:08:19;1.1;;;4.1;;
74483;SDS011;62942;52.462;10.846;2022-10-16T00:09:29;1.2;;;3.7;;
74483;SDS011;62942;52.462;10.846;2022-10-16T00:10:39;1.2;;;2.4;;
74483;SDS011;62942;52.462;10.846;2022-10-16T00:11:39;1;;;2.6;;
74483;SDS011;62942;52.462;10.846;2022-10-16T00:12:39;1.1;;;3.4;;
74483;SDS011;62942;52.462;10.846;2022-10-16T00:13:50;1;;;2.6;;
74483;SDS011;62942;52.462;10.846;2022-10-16T00:14:59;1.2;;;3.3;;
74483;SDS011;62942;52.462;10.846;2022-10-16T00:15:59;1.1;;;2.3;;
74483;SDS011;62942;52.462;10.846;2022-10-16T00:17:09;1.3;;;4.5;;
74483;SDS011;62942;52.462;10.846;2022-10-16T00:18:19;1.1;;;2.8;;
74483;SDS011;62942;52.462;10.846;2022-10-16T00:19:29;1.3;;;3.7;;
74483;SDS011;62942;52.462;10.846;2022-10-16T00:20:29;1.1;;;2.8;;
74483;SDS011;62942;52.462;10.846;2022-10-16T00:21:29;1.1;;;2.6;;
74483;SDS011;62942;52.462;10.846;2022-10-16T00:22:39;1.1;;;3.8;;
74483;SDS011;62942;52.462;10.846;2022-10-16T00:23:39;1.1;;;2.7;;
74483;SDS011;62942;52.462;10.846;2022-10-16T00:24:49;1;;;2.7;;
74483;SDS011;62942;52.462;10.846;2022-10-16T00:26:00;1;;;2.7;;
74483;SDS011;62942;52.462;10.846;2022-10-16T00:27:09;1.1;;;2.8;;
74483;SDS011;62942;52.462;10.846;2022-10-16T00:28:09;1.2;;;3;;
74483;SDS011;62942;52.462;10.846;2022-10-16T00:29:19;1.2;;;2.9;;
74483;SDS011;62942;52.462;10.846;2022-10-16T00:30:19;1.1;;;2.6;;
74483;SDS011;62942;52.462;10.846;2022-10-16T00:31:29;1.2;;;3.2;;
74483;SDS011;62942;52.462;10.846;2022-10-16T00:32:39;1.1;;;3.3;;
74483;SDS011;62942;52.462;10.846;2022-10-16T00:33:49;1;;;1.9;;
74483;SDS011;62942;52.462;10.846;2022-10-16T00:34:59;1.1;;;3;;
74483;SDS011;62942;52.462;10.846;2022-10-16T00:35:59;1;;;2.8;;
74483;SDS011;62942;52.462;10.846;2022-10-16T00:37:09;1;;;2.4;;
74483;SDS011;62942;52.462;10.846;2022-10-16T00:38:19;1.1;;;4.3;;
74483;SDS011;62942;52.462;10.846;2022-10-16T00:39:29;1.1;;;2.9;;
74483;SDS011;62942;52.462;10.846;2022-10-16T00:40:39;1.1;;;3.4;;
74483;SDS011;62942;52.462;10.846;2022-10-16T00:41:49;1.1;;;2.6;;
74483;SDS011;62942;52.462;10.846;2022-10-16T00:42:59;1.1;;;4;;
74483;SDS011;62942;52.462;10.846;2022-10-16T00:45:03;1;;;2.6;;
74483;SDS011;62942;52.462;10.846;2022-10-16T00:45:19;1.1;;;3;;
74483;SDS011;62942;52.462;10.846;2022-10-16T00:46:37;1;;;3;;
74483;SDS011;62942;52.462;10.846;2022-10-16T00:47:30;1.2;;;3.2;;
74483;SDS011;62942;52.462;10.846;2022-10-16T00:48:39;1.1;;;3.7;;
74483;SDS011;62942;52.462;10.846;2022-10-16T00:49:50;1.2;;;2.7;;
74483;SDS011;62942;52.462;10.846;2022-10-16T00:50:49;1.1;;;3.2;;
74483;SDS011;62942;52.462;10.846;2022-10-16T00:51:59;1.2;;;3.3;;
74483;SDS011;62942;52.462;10.846;2022-10-16T00:52:59;1.2;;;3.5;;
74483;SDS011;62942;52.462;10.846;2022-10-16T00:53:59;1.1;;;3.1;;
74483;SDS011;62942;52.462;10.846;2022-10-16T00:55:09;1.2;;;3.5;;
74483;SDS011;62942;52.462;10.846;2022-10-16T00:56:19;1.3;;;4.7;;
74483;SDS011;62942;52.462;10.846;2022-10-16T00:57:19;1.2;;;3.3;;
74483;SDS011;62942;52.462;10.846;2022-10-16T00:58:29;1.3;;;4.2;;
74483;SDS011;62942;52.462;10.846;2022-10-16T00:59:30;1.1;;;3.7;;
74483;SDS011;62942;52.462;10.846;2022-10-16T01:00:39;1.2;;;5.2;;
74483;SDS011;62942;52.462;10.846;2022-10-16T01:01:39;1.1;;;2.2;;
74483;SDS011;62942;52.462;10.846;2022-10-16T01:02:39;1.1;;;3.2;;
74483;SDS011;62942;52.462;10.846;2022-10-16T01:03:49;1.5;;;4.1;;
74483;SDS011;62942;52.462;10.846;2022-10-16T01:04:50;1.2;;;3;;
74483;SDS011;62942;52.462;10.846;2022-10-16T01:06:04;1.3;;;3.1;;
74483;SDS011;62942;52.462;10.846;2022-10-16T01:07:00;1.3;;;3.1;;
74483;SDS011;62942;52.462;10.846;2022-10-16T01:08:11;1.3;;;4.1;;
74483;SDS011;62942;52.462;10.846;2022-10-16T01:09:11;1.4;;;4.5;;
74483;SDS011;62942;52.462;10.846;2022-10-16T01:10:21;1.3;;;4.8;;
74483;SDS011;62942;52.462;10.846;2022-10-16T01:11:30;1.3;;;4.3;;
74483;SDS011;62942;52.462;10.846;2022-10-16T01:12:40;1.3;;;3.7;;
74483;SDS011;62942;52.462;10.846;2022-10-16T01:13:40;1.2;;;3;;
74483;SDS011;62942;52.462;10.846;2022-10-16T01:14:52;1.4;;;3.5;;
74483;SDS011;62942;52.462;10.846;2022-10-16T01:16:00;1.2;;;2.5;;
74483;SDS011;62942;52.462;10.846;2022-10-16T01:17:10;1.3;;;2.7;;
74483;SDS011;62942;52.462;10.846;2022-10-16T01:18:21;1.2;;;3.6;;
74483;SDS011;62942;52.462;10.846;2022-10-16T01:19:20;1.2;;;3;;
74483;SDS011;62942;52.462;10.846;2022-10-16T01:20:30;1.4;;;3;;
74483;SDS011;62942;52.462;10.846;2022-10-16T01:21:40;1.2;;;3.1;;
74483;SDS011;62942;52.462;10.846;2022-10-16T01:22:57;1.3;;;3.5;;
74483;SDS011;62942;52.462;10.846;2022-10-16T01:24:02;1.4;;;3.7;;
74483;SDS011;62942;52.462;10.846;2022-10-16T01:25:09;1.2;;;3.2;;
74483;SDS011;62942;52.462;10.846;2022-10-16T01:26:23;1.3;;;3.6;;
74483;SDS011;62942;52.462;10.846;2022-10-16T01:27:30;1.4;;;3.9;;
74483;SDS011;62942;52.462;10.846;2022-10-16T01:28:40;1.4;;;3.9;;
74483;SDS011;62942;52.462;10.846;2022-10-16T01:29:51;1.5;;;3.1;;
74483;SDS011;62942;52.462;10.846;2022-10-16T01:30:49;1.5;;;4.3;;
74483;SDS011;62942;52.462;10.846;2022-10-16T01:32:00;1.4;;;3.6;;
74483;SDS011;62942;52.462;10.846;2022-10-16T01:33:10;1.4;;;3.4;;
74483;SDS011;62942;52.462;10.846;2022-10-16T01:34:20;1.4;;;4;;
74483;SDS011;62942;52.462;10.846;2022-10-16T01:35:20;1.6;;;3.5;;
74483;SDS011;62942;52.462;10.846;2022-10-16T01:36:31;1.4;;;3.4;;
74483;SDS011;62942;52.462;10.846;2022-10-16T01:37:40;1.5;;;3.2;;
74483;SDS011;62942;52.462;10.846;2022-10-16T01:38:49;1.6;;;4;;
74483;SDS011;62942;52.462;10.846;2022-10-16T01:39:59;1.6;;;3.1;;
74483;SDS011;62942;52.462;10.846;2022-10-16T01:40:59;1.5;;;3.5;;
74483;SDS011;62942;52.462;10.846;2022-10-16T01:42:10;1.6;;;3.2;;
74483;SDS011;62942;52.462;10.846;2022-10-16T01:43:10;1.5;;;2.7;;
74483;SDS011;62942;52.462;10.846;2022-10-16T01:44:19;1.7;;;3.7;;
74483;SDS011;62942;52.462;10.846;2022-10-16T01:45:19;1.6;;;3.6;;
74483;SDS011;62942;52.462;10.846;2022-10-16T01:46:29;1.5;;;3.4;;
74483;SDS011;62942;52.462;10.846;2022-10-16T01:47:39;1.6;;;3.9;;
74483;SDS011;62942;52.462;10.846;2022-10-16T01:48:49;1.8;;;4.3;;
74483;SDS011;62942;52.462;10.846;2022-10-16T01:49:49;1.8;;;5.3;;
74483;SDS011;62942;52.462;10.846;2022-10-16T01:50:59;1.8;;;3.9;;
74483;SDS011;62942;52.462;10.846;2022-10-16T01:51:59;1.8;;;3;;
74483;SDS011;62942;52.462;10.846;2022-10-16T01:53:10;1.8;;;3.9;;
74483;SDS011;62942;52.462;10.846;2022-10-16T01:54:09;2;;;4.1;;
74483;SDS011;62942;52.462;10.846;2022-10-16T01:55:21;2.1;;;4.2;;
74483;SDS011;62942;52.462;10.846;2022-10-16T01:56:29;2.1;;;4.4;;
74483;SDS011;62942;52.462;10.846;2022-10-16T01:57:39;2.1;;;4.4;;
74483;SDS011;62942;52.462;10.846;2022-10-16T01:58:50;2.2;;;4;;
74483;SDS011;62942;52.462;10.846;2022-10-16T02:00:00;2;;;3.5;;
74483;SDS011;62942;52.462;10.846;2022-10-16T02:01:09;1.9;;;3.7;;
74483;SDS011;62942;52.462;10.846;2022-10-16T02:02:19;2.1;;;3.9;;
74483;SDS011;62942;52.462;10.846;2022-10-16T02:03:19;2;;;3.7;;
74483;SDS011;62942;52.462;10.846;2022-10-16T02:04:20;2.1;;;3.7;;
74483;SDS011;62942;52.462;10.846;2022-10-16T02:05:30;2.1;;;3.4;;
74483;SDS011;62942;52.462;10.846;2022-10-16T02:06:39;2;;;3;;
74483;SDS011;62942;52.462;10.846;2022-10-16T02:07:49;2.3;;;4.5;;
74483;SDS011;62942;52.462;10.846;2022-10-16T02:08:49;2.1;;;4.3;;
74483;SDS011;62942;52.462;10.846;2022-10-16T02:09:49;2.5;;;4.3;;
74483;SDS011;62942;52.462;10.846;2022-10-16T02:10:59;2.1;;;3.8;;
74483;SDS011;62942;52.462;10.846;2022-10-16T02:12:10;2.2;;;4.2;;
74483;SDS011;62942;52.462;10.846;2022-10-16T02:13:19;2.4;;;4.3;;
74483;SDS011;62942;52.462;10.846;2022-10-16T02:14:29;2.1;;;3.3;;
74483;SDS011;62942;52.462;10.846;2022-10-16T02:15:39;2.3;;;4.5;;
74483;SDS011;62942;52.462;10.846;2022-10-16T02:16:49;2.3;;;4.2;;
74483;SDS011;62942;52.462;10.846;2022-10-16T02:17:59;2.2;;;3.6;;
74483;SDS011;62942;52.462;10.846;2022-10-16T02:19:09;2.4;;;4.8;;
74483;SDS011;62942;52.462;10.846;2022-10-16T02:20:19;2.3;;;4.5;;
74483;SDS011;62942;52.462;10.846;2022-10-16T02:21:21;2.3;;;4.8;;
74483;SDS011;62942;52.462;10.846;2022-10-16T02:22:30;2.3;;;4.4;;
74483;SDS011;62942;52.462;10.846;2022-10-16T02:23:32;2.2;;;4;;
74483;SDS011;62942;52.462;10.846;2022-10-16T02:24:41;2.3;;;7.1;;
74483;SDS011;62942;52.462;10.846;2022-10-16T02:25:49;2.3;;;4.9;;
74483;SDS011;62942;52.462;10.846;2022-10-16T02:27:00;2.2;;;3.5;;
74483;SDS011;62942;52.462;10.846;2022-10-16T02:28:09;2;;;4;;
74483;SDS011;62942;52.462;10.846;2022-10-16T02:29:10;2.1;;;4.9;;
74483;SDS011;62942;52.462;10.846;2022-10-16T02:30:21;2.3;;;5.1;;
74483;SDS011;62942;52.462;10.846;2022-10-16T02:31:20;2.1;;;3.7;;
74483;SDS011;62942;52.462;10.846;2022-10-16T02:32:30;2.1;;;4.6;;
74483;SDS011;62942;52.462;10.846;2022-10-16T02:33:39;2.2;;;3.5;;
74483;SDS011;62942;52.462;10.846;2022-10-16T02:34:49;2;;;4;;
74483;SDS011;62942;52.462;10.846;2022-10-16T02:35:49;2;;;3.8;;
74483;SDS011;62942;52.462;10.846;2022-10-16T02:36:59;2.3;;;4.3;;
74483;SDS011;62942;52.462;10.846;2022-10-16T02:38:09;2.1;;;3.6;;
74483;SDS011;62942;52.462;10.846;2022-10-16T02:39:19;2.2;;;3.1;;
74483;SDS011;62942;52.462;10.846;2022-10-16T02:40:29;2;;;4.3;;
74483;SDS011;62942;52.462;10.846;2022-10-16T02:41:39;2.1;;;3.9;;
74483;SDS011;62942;52.462;10.846;2022-10-16T02:42:49;2.2;;;5.6;;
74483;SDS011;62942;52.462;10.846;2022-10-16T02:43:49;2;;;3.7;;
74483;SDS011;62942;52.462;10.846;2022-10-16T02:44:59;2;;;3.9;;
74483;SDS011;62942;52.462;10.846;2022-10-16T02:45:59;2;;;4.7;;
74483;SDS011;62942;52.462;10.846;2022-10-16T02:47:09;2.1;;;3.9;;
74483;SDS011;62942;52.462;10.846;2022-10-16T02:48:19;2.1;;;4.1;;
74483;SDS011;62942;52.462;10.846;2022-10-16T02:49:19;2;;;3.6;;
74483;SDS011;62942;52.462;10.846;2022-10-16T02:50:29;2;;;3.6;;
74483;SDS011;62942;52.462;10.846;2022-10-16T02:51:29;2;;;3.4;;
74483;SDS011;62942;52.462;10.846;2022-10-16T02:52:29;2.1;;;3.1;;
74483;SDS011;62942;52.462;10.846;2022-10-16T02:53:39;2;;;3.4;;
74483;SDS011;62942;52.462;10.846;2022-10-16T02:54:39;1.9;;;4.2;;
74483;SDS011;62942;52.462;10.846;2022-10-16T02:55:49;1.9;;;5;;
74483;SDS011;62942;52.462;10.846;2022-10-16T02:56:59;2;;;3.7;;
74483;SDS011;62942;52.462;10.846;2022-10-16T02:58:09;2.1;;;3.9;;
74483;SDS011;62942;52.462;10.846;2022-10-16T02:59:19;2.2;;;4.7;;
74483;SDS011;62942;52.462;10.846;2022-10-16T03:00:29;2.2;;;4;;
74483;SDS011;62942;52.462;10.846;2022-10-16T03:01:39;2;;;4.1;;
74483;SDS011;62942;52.462;10.846;2022-10-16T03:02:49;1.9;;;2.7;;
74483;SDS011;62942;52.462;10.846;2022-10-16T03:03:49;2.2;;;4.5;;
74483;SDS011;62942;52.462;10.846;2022-10-16T03:04:59;1.9;;;5;;
74483;SDS011;62942;52.462;10.846;2022-10-16T03:06:09;1.9;;;2.9;;
74483;SDS011;62942;52.462;10.846;2022-10-16T03:07:19;1.9;;;3.1;;
74483;SDS011;62942;52.462;10.846;2022-10-16T03:08:29;2.1;;;4.2;;
74483;SDS011;62942;52.462;10.846;2022-10-16T03:09:39;1.9;;;3.8;;
74483;SDS011;62942;52.462;10.846;2022-10-16T03:10:49;2.1;;;4;;
74483;SDS011;62942;52.462;10.846;2022-10-16T03:11:59;1.9;;;3.8;;
74483;SDS011;62942;52.462;10.846;2022-10-16T03:13:09;2;;;4.4;;
74483;SDS011;62942;52.462;10.846;2022-10-16T03:14:19;2;;;3.8;;
74483;SDS011;62942;52.462;10.846;2022-10-16T03:15:29;2.1;;;3.5;;
74483;SDS011;62942;52.462;10.846;2022-10-16T03:16:39;2;;;4;;
74483;SDS011;62942;52.462;10.846;2022-10-16T03:17:49;1.9;;;3.9;;
74483;SDS011;62942;52.462;10.846;2022-10-16T03:18:59;1.9;;;2.9;;
74483;SDS011;62942;52.462;10.846;2022-10-16T03:20:09;2;;;4.1;;
74483;SDS011;62942;52.462;10.846;2022-10-16T03:21:19;2.1;;;4.7;;
74483;SDS011;62942;52.462;10.846;2022-10-16T03:22:19;2;;;3.9;;
74483;SDS011;62942;52.462;10.846;2022-10-16T03:23:29;2.1;;;4.8;;
74483;SDS011;62942;52.462;10.846;2022-10-16T03:24:39;2.1;;;4.2;;
74483;SDS011;62942;52.462;10.846;2022-10-16T03:25:49;2.1;;;3.8;;
74483;SDS011;62942;52.462;10.846;2022-10-16T03:26:49;2;;;4.3;;
74483;SDS011;62942;52.462;10.846;2022-10-16T03:27:59;2.1;;;4.6;;
74483;SDS011;62942;52.462;10.846;2022-10-16T03:29:09;2.1;;;3.8;;
74483;SDS011;62942;52.462;10.846;2022-10-16T03:30:19;2.2;;;4.5;;
74483;SDS011;62942;52.462;10.846;2022-10-16T03:31:29;2.1;;;3.6;;
74483;SDS011;62942;52.462;10.846;2022-10-16T03:32:39;2.2;;;4.8;;
74483;SDS011;62942;52.462;10.846;2022-10-16T03:33:39;2.2;;;5;;
74483;SDS011;62942;52.462;10.846;2022-10-16T03:34:49;2.1;;;4.2;;
74483;SDS011;62942;52.462;10.846;2022-10-16T03:35:59;2.3;;;5.7;;
74483;SDS011;62942;52.462;10.846;2022-10-16T03:36:59;2.2;;;4;;
74483;SDS011;62942;52.462;10.846;2022-10-16T03:38:09;2.2;;;4.6;;
74483;SDS011;62942;52.462;10.846;2022-10-16T03:39:09;2.1;;;4.1;;
74483;SDS011;62942;52.462;10.846;2022-10-16T03:40:19;2.2;;;3.5;;
74483;SDS011;62942;52.462;10.846;2022-10-16T03:41:19;2.3;;;4;;
74483;SDS011;62942;52.462;10.846;2022-10-16T03:42:29;2.3;;;4.3;;
74483;SDS011;62942;52.462;10.846;2022-10-16T03:43:39;2.5;;;5.3;;
74483;SDS011;62942;52.462;10.846;2022-10-16T03:44:39;2.2;;;3.9;;
74483;SDS011;62942;52.462;10.846;2022-10-16T03:45:39;2.2;;;4.4;;
74483;SDS011;62942;52.462;10.846;2022-10-16T03:46:39;2.3;;;4.2;;
74483;SDS011;62942;52.462;10.846;2022-10-16T03:47:49;2.3;;;3.7;;
74483;SDS011;62942;52.462;10.846;2022-10-16T03:48:49;2.5;;;5.1;;
74483;SDS011;62942;52.462;10.846;2022-10-16T03:49:59;2.5;;;5.1;;
74483;SDS011;62942;52.462;10.846;2022-10-16T03:51:09;2.4;;;4.5;;
74483;SDS011;62942;52.462;10.846;2022-10-16T03:52:09;2.6;;;3.8;;
74483;SDS011;62942;52.462;10.846;2022-10-16T03:53:19;2.6;;;4.1;;
74483;SDS011;62942;52.462;10.846;2022-10-16T03:54:29;2.5;;;5.5;;
74483;SDS011;62942;52.462;10.846;2022-10-16T03:55:40;2.6;;;5.2;;
74483;SDS011;62942;52.462;10.846;2022-10-16T03:56:49;2.4;;;4.1;;
74483;SDS011;62942;52.462;10.846;2022-10-16T03:57:49;2.5;;;4.9;;
74483;SDS011;62942;52.462;10.846;2022-10-16T03:58:59;2.4;;;4.8;;
74483;SDS011;62942;52.462;10.846;2022-10-16T03:59:59;2.4;;;3.9;;
74483;SDS011;62942;52.462;10.846;2022-10-16T04:01:09;2.5;;;5;;
74483;SDS011;62942;52.462;10.846;2022-10-16T04:02:09;2.5;;;5.1;;
74483;SDS011;62942;52.462;10.846;2022-10-16T04:03:19;2.5;;;4;;
74483;SDS011;62942;52.462;10.846;2022-10-16T04:04:29;2.7;;;4.5;;
74483;SDS011;62942;52.462;10.846;2022-10-16T04:05:39;2.3;;;4.9;;
74483;SDS011;62942;52.462;10.846;2022-10-16T04:06:39;2.7;;;5.5;;
74483;SDS011;62942;52.462;10.846;2022-10-16T04:07:39;2.6;;;4.5;;
74483;SDS011;62942;52.462;10.846;2022-10-16T04:08:49;2.6;;;4.2;;
74483;SDS011;62942;52.462;10.846;2022-10-16T04:09:59;2.6;;;5.6;;
74483;SDS011;62942;52.462;10.846;2022-10-16T04:10:59;2.6;;;3.8;;
74483;SDS011;62942;52.462;10.846;2022-10-16T04:12:09;2.7;;;4.3;;
74483;SDS011;62942;52.462;10.846;2022-10-16T04:13:19;2.8;;;6.3;;
74483;SDS011;62942;52.462;10.846;2022-10-16T04:14:29;2.8;;;5.1;;
74483;SDS011;62942;52.462;10.846;2022-10-16T04:15:39;2.6;;;4.8;;
74483;SDS011;62942;52.462;10.846;2022-10-16T04:16:48;2.7;;;5.4;;
74483;SDS011;62942;52.462;10.846;2022-10-16T04:17:49;2.7;;;4.3;;
74483;SDS011;62942;52.462;10.846;2022-10-16T04:18:59;2.9;;;4.8;;
74483;SDS011;62942;52.462;10.846;2022-10-16T04:20:09;2.7;;;6;;
74483;SDS011;62942;52.462;10.846;2022-10-16T04:21:19;2.5;;;5.2;;
74483;SDS011;62942;52.462;10.846;2022-10-16T04:22:28;2.6;;;4.3;;
74483;SDS011;62942;52.462;10.846;2022-10-16T04:23:39;2.8;;;4.4;;
74483;SDS011;62942;52.462;10.846;2022-10-16T04:24:48;2.7;;;5.4;;
74483;SDS011;62942;52.462;10.846;2022-10-16T04:25:49;2.9;;;5.3;;
74483;SDS011;62942;52.462;10.846;2022-10-16T04:26:49;2.8;;;5.3;;
74483;SDS011;62942;52.462;10.846;2022-10-16T04:27:58;3;;;5.6;;
74483;SDS011;62942;52.462;10.846;2022-10-16T04:29:08;3;;;4.9;;
74483;SDS011;62942;52.462;10.846;2022-10-16T04:30:19;3;;;5.3;;
74483;SDS011;62942;52.462;10.846;2022-10-16T04:31:29;2.8;;;4.7;;
74483;SDS011;62942;52.462;10.846;2022-10-16T04:32:28;2.7;;;6.1;;
74483;SDS011;62942;52.462;10.846;2022-10-16T04:33:38;3;;;5.4;;
74483;SDS011;62942;52.462;10.846;2022-10-16T04:34:39;2.8;;;4.6;;
74483;SDS011;62942;52.462;10.846;2022-10-16T04:35:55;2.9;;;5.5;;
74483;SDS011;62942;52.462;10.846;2022-10-16T04:36:58;2.9;;;4.1;;
74483;SDS011;62942;52.462;10.846;2022-10-16T04:38:08;2.9;;;5.2;;
74483;SDS011;62942;52.462;10.846;2022-10-16T04:39:08;2.9;;;5;;
74483;SDS011;62942;52.462;10.846;2022-10-16T04:40:18;3.1;;;6.2;;
74483;SDS011;62942;52.462;10.846;2022-10-16T04:41:18;2.9;;;4.5;;
74483;SDS011;62942;52.462;10.846;2022-10-16T04:42:28;2.9;;;6;;
74483;SDS011;62942;52.462;10.846;2022-10-16T04:43:28;3.1;;;5.2;;
74483;SDS011;62942;52.462;10.846;2022-10-16T04:44:38;3;;;4.8;;
74483;SDS011;62942;52.462;10.846;2022-10-16T04:45:48;3.1;;;5.6;;
74483;SDS011;62942;52.462;10.846;2022-10-16T04:46:58;3.1;;;6.7;;
74483;SDS011;62942;52.462;10.846;2022-10-16T04:48:08;3;;;5.1;;
74483;SDS011;62942;52.462;10.846;2022-10-16T04:49:08;3.1;;;4.8;;
74483;SDS011;62942;52.462;10.846;2022-10-16T04:50:18;3.1;;;5;;
74483;SDS011;62942;52.462;10.846;2022-10-16T04:51:19;3.2;;;5.3;;
74483;SDS011;62942;52.462;10.846;2022-10-16T04:52:28;3.3;;;4.7;;
74483;SDS011;62942;52.462;10.846;2022-10-16T04:53:28;3.1;;;6;;
74483;SDS011;62942;52.462;10.846;2022-10-16T04:54:38;3.2;;;5.3;;
74483;SDS011;62942;52.462;10.846;2022-10-16T04:55:38;3.3;;;5.8;;
74483;SDS011;62942;52.462;10.846;2022-10-16T04:56:48;3.1;;;5.6;;
74483;SDS011;62942;52.462;10.846;2022-10-16T04:57:58;3.3;;;6.4;;
74483;SDS011;62942;52.462;10.846;2022-10-16T04:59:09;3.2;;;5.8;;
74483;SDS011;62942;52.462;10.846;2022-10-16T05:00:19;3.4;;;5.7;;
74483;SDS011;62942;52.462;10.846;2022-10-16T05:01:28;3.2;;;5.2;;
74483;SDS011;62942;52.462;10.846;2022-10-16T05:02:38;3.2;;;4.4;;
74483;SDS011;62942;52.462;10.846;2022-10-16T05:03:48;3.5;;;6;;
74483;SDS011;62942;52.462;10.846;2022-10-16T05:04:58;3.1;;;7.4;;
74483;SDS011;62942;52.462;10.846;2022-10-16T05:06:08;3;;;4.4;;
74483;SDS011;62942;52.462;10.846;2022-10-16T05:07:08;3.4;;;6.4;;
74483;SDS011;62942;52.462;10.846;2022-10-16T05:08:18;3.4;;;4.9;;
74483;SDS011;62942;52.462;10.846;2022-10-16T05:09:28;3.1;;;5.3;;
74483;SDS011;62942;52.462;10.846;2022-10-16T05:10:39;3.2;;;5.1;;
74483;SDS011;62942;52.462;10.846;2022-10-16T05:11:48;3.3;;;7.3;;
74483;SDS011;62942;52.462;10.846;2022-10-16T05:12:48;3.1;;;5.6;;
74483;SDS011;62942;52.462;10.846;2022-10-16T05:13:59;3.4;;;6.2;;
74483;SDS011;62942;52.462;10.846;2022-10-16T05:14:58;3;;;4.5;;
74483;SDS011;62942;52.462;10.846;2022-10-16T05:15:58;3.3;;;6.5;;
74483;SDS011;62942;52.462;10.846;2022-10-16T05:17:08;3.6;;;7.4;;
74483;SDS011;62942;52.462;10.846;2022-10-16T05:18:18;3.5;;;6;;
74483;SDS011;62942;52.462;10.846;2022-10-16T05:19:18;3.5;;;6.5;;
74483;SDS011;62942;52.462;10.846;2022-10-16T05:20:19;3.4;;;5.5;;
74483;SDS011;62942;52.462;10.846;2022-10-16T05:21:28;3.4;;;5.6;;
74483;SDS011;62942;52.462;10.846;2022-10-16T05:22:28;3.2;;;5.3;;
74483;SDS011;62942;52.462;10.846;2022-10-16T05:23:38;3.4;;;6.6;;
74483;SDS011;62942;52.462;10.846;2022-10-16T05:24:48;3.5;;;5.3;;
74483;SDS011;62942;52.462;10.846;2022-10-16T05:25:52;3.6;;;5.5;;
74483;SDS011;62942;52.462;10.846;2022-10-16T05:26:58;3.7;;;6.1;;
74483;SDS011;62942;52.462;10.846;2022-10-16T05:28:08;3.6;;;5.4;;
74483;SDS011;62942;52.462;10.846;2022-10-16T05:29:18;3.7;;;7.3;;
74483;SDS011;62942;52.462;10.846;2022-10-16T05:30:18;3.7;;;5.9;;
74483;SDS011;62942;52.462;10.846;2022-10-16T05:31:28;3.6;;;6.8;;
74483;SDS011;62942;52.462;10.846;2022-10-16T05:32:28;3.7;;;6.2;;
74483;SDS011;62942;52.462;10.846;2022-10-16T05:33:38;3.8;;;6.3;;
74483;SDS011;62942;52.462;10.846;2022-10-16T05:34:38;3.7;;;6.2;;
74483;SDS011;62942;52.462;10.846;2022-10-16T05:35:49;3.8;;;5.4;;
74483;SDS011;62942;52.462;10.846;2022-10-16T05:36:48;3.9;;;5.9;;
74483;SDS011;62942;52.462;10.846;2022-10-16T05:37:58;3.7;;;6.4;;
74483;SDS011;62942;52.462;10.846;2022-10-16T05:39:08;3.7;;;5.4;;
74483;SDS011;62942;52.462;10.846;2022-10-16T05:40:09;3.9;;;6.4;;
74483;SDS011;62942;52.462;10.846;2022-10-16T05:41:18;3.7;;;6.2;;
74483;SDS011;62942;52.462;10.846;2022-10-16T05:42:28;3.7;;;5.5;;
74483;SDS011;62942;52.462;10.846;2022-10-16T05:43:28;3.9;;;7.4;;
74483;SDS011;62942;52.462;10.846;2022-10-16T05:44:38;3.8;;;6.3;;
74483;SDS011;62942;52.462;10.846;2022-10-16T05:45:38;3.7;;;6.9;;
74483;SDS011;62942;52.462;10.846;2022-10-16T05:46:48;3.8;;;5.9;;
74483;SDS011;62942;52.462;10.846;2022-10-16T05:47:48;3.7;;;5.5;;
74483;SDS011;62942;52.462;10.846;2022-10-16T05:48:58;3.6;;;6;;
74483;SDS011;62942;52.462;10.846;2022-10-16T05:50:08;3.6;;;7.2;;
74483;SDS011;62942;52.462;10.846;2022-10-16T05:51:09;3.8;;;6.3;;
74483;SDS011;62942;52.462;10.846;2022-10-16T05:52:18;3.7;;;6.6;;
74483;SDS011;62942;52.462;10.846;2022-10-16T05:53:29;3.6;;;5.8;;
74483;SDS011;62942;52.462;10.846;2022-10-16T05:54:38;3.8;;;6.7;;
74483;SDS011;62942;52.462;10.846;2022-10-16T05:55:38;3.9;;;6.3;;
74483;SDS011;62942;52.462;10.846;2022-10-16T05:56:48;3.7;;;6.4;;
74483;SDS011;62942;52.462;10.846;2022-10-16T05:57:58;3.8;;;8.7;;
74483;SDS011;62942;52.462;10.846;2022-10-16T05:59:08;3.6;;;6.5;;
74483;SDS011;62942;52.462;10.846;2022-10-16T06:00:09;3.4;;;6;;
74483;SDS011;62942;52.462;10.846;2022-10-16T06:01:09;3.6;;;6.9;;
74483;SDS011;62942;52.462;10.846;2022-10-16T06:02:10;3.6;;;6.1;;
74483;SDS011;62942;52.462;10.846;2022-10-16T06:03:18;3.6;;;6.3;;
74483;SDS011;62942;52.462;10.846;2022-10-16T06:04:18;3.6;;;5.2;;
74483;SDS011;62942;52.462;10.846;2022-10-16T06:05:28;3.6;;;6.3;;
74483;SDS011;62942;52.462;10.846;2022-10-16T06:06:38;3.8;;;5.2;;
74483;SDS011;62942;52.462;10.846;2022-10-16T06:07:48;3.9;;;5.5;;
74483;SDS011;62942;52.462;10.846;2022-10-16T06:08:49;4;;;5.8;;
74483;SDS011;62942;52.462;10.846;2022-10-16T06:09:58;3.7;;;6.3;;
74483;SDS011;62942;52.462;10.846;2022-10-16T06:11:09;3.9;;;6.8;;
74483;SDS011;62942;52.462;10.846;2022-10-16T06:12:19;4.2;;;7.2;;
74483;SDS011;62942;52.462;10.846;2022-10-16T06:13:18;4.2;;;7.3;;
74483;SDS011;62942;52.462;10.846;2022-10-16T06:14:28;3.8;;;5.4;;
74483;SDS011;62942;52.462;10.846;2022-10-16T06:15:38;3.9;;;6.2;;
74483;SDS011;62942;52.462;10.846;2022-10-16T06:16:48;4.1;;;5.8;;
74483;SDS011;62942;52.462;10.846;2022-10-16T06:17:48;3.9;;;7.3;;
74483;SDS011;62942;52.462;10.846;2022-10-16T06:18:58;3.7;;;6.1;;
74483;SDS011;62942;52.462;10.846;2022-10-16T06:20:08;3.7;;;5.3;;
74483;SDS011;62942;52.462;10.846;2022-10-16T06:21:19;4.2;;;7.5;;
74483;SDS011;62942;52.462;10.846;2022-10-16T06:22:28;4.3;;;8.2;;
74483;SDS011;62942;52.462;10.846;2022-10-16T06:23:28;4.3;;;6.4;;
74483;SDS011;62942;52.462;10.846;2022-10-16T06:24:38;3.9;;;6;;
74483;SDS011;62942;52.462;10.846;2022-10-16T06:25:48;4.2;;;6.9;;
74483;SDS011;62942;52.462;10.846;2022-10-16T06:26:58;4.1;;;6.7;;
74483;SDS011;62942;52.462;10.846;2022-10-16T06:27:58;4.2;;;6;;
74483;SDS011;62942;52.462;10.846;2022-10-16T06:29:08;4.1;;;5.8;;
74483;SDS011;62942;52.462;10.846;2022-10-16T06:30:18;4.1;;;8.3;;
74483;SDS011;62942;52.462;10.846;2022-10-16T06:31:18;4.3;;;7.1;;
74483;SDS011;62942;52.462;10.846;2022-10-16T06:32:28;4.1;;;5.2;;
74483;SDS011;62942;52.462;10.846;2022-10-16T06:33:28;4.1;;;6.9;;
74483;SDS011;62942;52.462;10.846;2022-10-16T06:34:38;3.9;;;6.6;;
74483;SDS011;62942;52.462;10.846;2022-10-16T06:35:38;4.5;;;7.9;;
74483;SDS011;62942;52.462;10.846;2022-10-16T06:36:48;4.3;;;6.7;;
74483;SDS011;62942;52.462;10.846;2022-10-16T06:37:48;3.8;;;5.2;;
74483;SDS011;62942;52.462;10.846;2022-10-16T06:38:58;4.1;;;6.4;;
74483;SDS011;62942;52.462;10.846;2022-10-16T06:39:58;4.2;;;6.8;;
74483;SDS011;62942;52.462;10.846;2022-10-16T06:41:09;4;;;6.6;;
74483;SDS011;62942;52.462;10.846;2022-10-16T06:42:08;4;;;6.8;;
74483;SDS011;62942;52.462;10.846;2022-10-16T06:43:18;4;;;7.7;;
74483;SDS011;62942;52.462;10.846;2022-10-16T06:44:18;3.7;;;6.2;;
74483;SDS011;62942;52.462;10.846;2022-10-16T06:45:28;3.7;;;6.4;;
74483;SDS011;62942;52.462;10.846;2022-10-16T06:46:28;3.8;;;6.1;;
74483;SDS011;62942;52.462;10.846;2022-10-16T06:47:38;3.8;;;7.8;;
74483;SDS011;62942;52.462;10.846;2022-10-16T06:48:48;3.4;;;6.2;;
74483;SDS011;62942;52.462;10.846;2022-10-16T06:49:58;3.5;;;5.2;;
74483;SDS011;62942;52.462;10.846;2022-10-16T06:51:09;3.4;;;5.2;;
74483;SDS011;62942;52.462;10.846;2022-10-16T06:52:08;3;;;5.6;;